sensor_id;sensor_type;location;lat;lon;timestamp;pressure;altitude;pressure_sealevel;temperature;humidity
68077;BME280;54866;53.458;14.540;2023-02-15T00:01:36;102393.28;;;0.48;95.88
68077;BME280;54866;53.458;14.540;2023-02-15T00:04:06;102389.99;;;0.47;96.36
68077;BME280;54866;53.458;14.540;2023-02-15T00:06:36;102392.77;;;0.47;96.55
68077;BME280;54866;53.458;14.540;2023-02-15T00:09:06;102393.09;;;0.49;96.58
68077;BME280;54866;53.458;14.540;2023-02-15T00:11:35;102388.76;;;0.49;96.54
68077;BME280;54866;53.458;14.540;2023-02-15T00:14:19;102385.13;;;0.47;96.65
68077;BME280;54866;53.458;14.540;2023-02-15T00:16:51;102388.09;;;0.47;96.76
68077;BME280;54866;53.458;14.540;2023-02-15T00:19:22;102385.48;;;0.47;97.03
68077;BME280;54866;53.458;14.540;2023-02-15T00:21:51;102386.54;;;0.46;97.10
68077;BME280;54866;53.458;14.540;2023-02-15T00:24:20;102384.13;;;0.44;97.05
68077;BME280;54866;53.458;14.540;2023-02-15T00:26:50;102385.38;;;0.41;96.93
68077;BME280;54866;53.458;14.540;2023-02-15T00:29:20;102383.67;;;0.39;96.83
68077;BME280;54866;53.458;14.540;2023-02-15T00:31:50;102374.50;;;0.36;96.86
68077;BME280;54866;53.458;14.540;2023-02-15T00:34:22;102375.36;;;0.34;97.02
68077;BME280;54866;53.458;14.540;2023-02-15T00:36:52;102370.70;;;0.31;96.87
68077;BME280;54866;53.458;14.540;2023-02-15T00:39:21;102371.95;;;0.28;97.04
68077;BME280;54866;53.458;14.540;2023-02-15T00:41:51;102368.70;;;0.25;97.09
68077;BME280;54866;53.458;14.540;2023-02-15T00:44:21;102368.71;;;0.23;97.30
68077;BME280;54866;53.458;14.540;2023-02-15T00:46:50;102365.63;;;0.19;97.15
68077;BME280;54866;53.458;14.540;2023-02-15T00:49:19;102362.88;;;0.15;97.06
68077;BME280;54866;53.458;14.540;2023-02-15T00:51:49;102365.84;;;0.12;97.19
68077;BME280;54866;53.458;14.540;2023-02-15T00:54:18;102362.92;;;0.10;97.35
68077;BME280;54866;53.458;14.540;2023-02-15T00:56:47;102360.86;;;0.08;97.43
68077;BME280;54866;53.458;14.540;2023-02-15T00:59:17;102364.53;;;0.06;97.57
68077;BME280;54866;53.458;14.540;2023-02-15T01:01:46;102359.88;;;0.03;97.59
68077;BME280;54866;53.458;14.540;2023-02-15T01:04:15;102360.06;;;0.00;97.66
68077;BME280;54866;53.458;14.540;2023-02-15T01:06:45;102362.84;;;-0.03;97.60
68077;BME280;54866;53.458;14.540;2023-02-15T01:09:14;102366.52;;;-0.06;97.71
68077;BME280;54866;53.458;14.540;2023-02-15T01:11:43;102358.23;;;-0.11;97.91
68077;BME280;54866;53.458;14.540;2023-02-15T01:14:13;102359.30;;;-0.13;97.91
68077;BME280;54866;53.458;14.540;2023-02-15T01:16:42;102365.90;;;-0.17;97.98
68077;BME280;54866;53.458;14.540;2023-02-15T01:19:11;102364.53;;;-0.21;97.97
68077;BME280;54866;53.458;14.540;2023-02-15T01:21:41;102360.91;;;-0.23;98.22
68077;BME280;54866;53.458;14.540;2023-02-15T01:24:13;102359.36;;;-0.24;98.38
68077;BME280;54866;53.458;14.540;2023-02-15T01:26:42;102360.74;;;-0.24;98.39
68077;BME280;54866;53.458;14.540;2023-02-15T01:29:12;102353.99;;;-0.24;98.64
68077;BME280;54866;53.458;14.540;2023-02-15T01:31:41;102353.30;;;-0.24;98.63
68077;BME280;54866;53.458;14.540;2023-02-15T01:34:10;102347.60;;;-0.25;98.75
68077;BME280;54866;53.458;14.540;2023-02-15T01:36:40;102355.89;;;-0.22;98.81
68077;BME280;54866;53.458;14.540;2023-02-15T01:39:09;102354.84;;;-0.21;98.86
68077;BME280;54866;53.458;14.540;2023-02-15T01:41:38;102350.33;;;-0.21;98.94
68077;BME280;54866;53.458;14.540;2023-02-15T01:47:04;102347.23;;;-0.22;99.11
68077;BME280;54866;53.458;14.540;2023-02-15T01:49:33;102345.67;;;-0.24;99.10
68077;BME280;54866;53.458;14.540;2023-02-15T01:52:03;102342.92;;;-0.25;99.30
68077;BME280;54866;53.458;14.540;2023-02-15T01:54:34;102342.41;;;-0.26;99.13
68077;BME280;54866;53.458;14.540;2023-02-15T01:57:07;102344.16;;;-0.29;99.20
68077;BME280;54866;53.458;14.540;2023-02-15T01:59:39;102337.08;;;-0.32;99.31
68077;BME280;54866;53.458;14.540;2023-02-15T02:02:13;102332.09;;;-0.35;99.37
68077;BME280;54866;53.458;14.540;2023-02-15T02:04:50;102331.73;;;-0.36;99.38
68077;BME280;54866;53.458;14.540;2023-02-15T02:07:21;102324.82;;;-0.38;99.59
68077;BME280;54866;53.458;14.540;2023-02-15T02:09:51;102319.98;;;-0.41;99.70
68077;BME280;54866;53.458;14.540;2023-02-15T02:12:22;102316.38;;;-0.45;99.58
68077;BME280;54866;53.458;14.540;2023-02-15T02:14:54;102322.62;;;-0.45;99.79
68077;BME280;54866;53.458;14.540;2023-02-15T02:17:33;102316.25;;;-0.48;99.85
68077;BME280;54866;53.458;14.540;2023-02-15T02:20:31;102315.05;;;-0.51;99.77
68077;BME280;54866;53.458;14.540;2023-02-15T02:23:18;102317.30;;;-0.55;99.93
68077;BME280;54866;53.458;14.540;2023-02-15T02:26:31;102310.59;;;-0.59;100.00
68077;BME280;54866;53.458;14.540;2023-02-15T02:29:31;102310.44;;;-0.62;100.00
68077;BME280;54866;53.458;14.540;2023-02-15T02:32:31;102306.46;;;-0.64;100.00
68077;BME280;54866;53.458;14.540;2023-02-15T02:35:04;102302.17;;;-0.68;100.00
68077;BME280;54866;53.458;14.540;2023-02-15T02:37:43;102296.46;;;-0.69;100.00
68077;BME280;54866;53.458;14.540;2023-02-15T02:40:20;102294.89;;;-0.70;100.00
68077;BME280;54866;53.458;14.540;2023-02-15T02:42:58;102289.90;;;-0.74;100.00
68077;BME280;54866;53.458;14.540;2023-02-15T02:45:33;102286.45;;;-0.75;100.00
68077;BME280;54866;53.458;14.540;2023-02-15T02:48:08;102279.02;;;-0.77;100.00
68077;BME280;54866;53.458;14.540;2023-02-15T02:50:40;102274.21;;;-0.82;100.00
68077;BME280;54866;53.458;14.540;2023-02-15T02:53:10;102273.52;;;-0.82;100.00
68077;BME280;54866;53.458;14.540;2023-02-15T02:55:42;102268.17;;;-0.84;100.00
68077;BME280;54866;53.458;14.540;2023-02-15T02:58:17;102262.99;;;-0.85;100.00
68077;BME280;54866;53.458;14.540;2023-02-15T03:00:50;102258.31;;;-0.87;100.00
68077;BME280;54866;53.458;14.540;2023-02-15T03:03:25;102258.66;;;-0.89;100.00
68077;BME280;54866;53.458;14.540;2023-02-15T03:05:59;102261.62;;;-0.91;100.00
68077;BME280;54866;53.458;14.540;2023-02-15T03:08:32;102256.61;;;-0.93;100.00
68077;BME280;54866;53.458;14.540;2023-02-15T03:11:04;102253.69;;;-0.95;100.00
68077;BME280;54866;53.458;14.540;2023-02-15T03:13:34;102252.31;;;-0.96;100.00
68077;BME280;54866;53.458;14.540;2023-02-15T03:16:06;102247.48;;;-0.99;100.00
68077;BME280;54866;53.458;14.540;2023-02-15T03:18:58;102250.77;;;-0.99;100.00
68077;BME280;54866;53.458;14.540;2023-02-15T03:21:33;102250.45;;;-1.00;100.00
68077;BME280;54866;53.458;14.540;2023-02-15T03:24:09;102245.44;;;-1.02;100.00
68077;BME280;54866;53.458;14.540;2023-02-15T03:26:40;102239.39;;;-1.04;100.00
68077;BME280;54866;53.458;14.540;2023-02-15T03:29:12;102234.18;;;-1.04;100.00
68077;BME280;54866;53.458;14.540;2023-02-15T03:31:44;102236.78;;;-1.05;100.00
68077;BME280;54866;53.458;14.540;2023-02-15T03:34:16;102235.06;;;-1.06;100.00
68077;BME280;54866;53.458;14.540;2023-02-15T03:36:50;102236.46;;;-1.09;100.00
68077;BME280;54866;53.458;14.540;2023-02-15T03:39:25;102228.17;;;-1.11;100.00
68077;BME280;54866;53.458;14.540;2023-02-15T03:42:02;102229.20;;;-1.11;100.00
68077;BME280;54866;53.458;14.540;2023-02-15T03:44:39;102231.64;;;-1.12;100.00
68077;BME280;54866;53.458;14.540;2023-02-15T03:47:15;102233.04;;;-1.14;100.00
68077;BME280;54866;53.458;14.540;2023-02-15T03:49:50;102230.11;;;-1.15;100.00
68077;BME280;54866;53.458;14.540;2023-02-15T03:52:23;102226.82;;;-1.14;100.00
68077;BME280;54866;53.458;14.540;2023-02-15T03:54:54;102225.60;;;-1.14;100.00
68077;BME280;54866;53.458;14.540;2023-02-15T03:57:26;102226.29;;;-1.13;100.00
68077;BME280;54866;53.458;14.540;2023-02-15T04:00:17;102227.86;;;-1.14;100.00
68077;BME280;54866;53.458;14.540;2023-02-15T04:03:17;102218.87;;;-1.16;100.00
68077;BME280;54866;53.458;14.540;2023-02-15T04:05:51;102219.92;;;-1.19;100.00
68077;BME280;54866;53.458;14.540;2023-02-15T04:08:20;102218.53;;;-1.17;100.00
68077;BME280;54866;53.458;14.540;2023-02-15T04:11:10;102215.08;;;-1.18;100.00
68077;BME280;54866;53.458;14.540;2023-02-15T04:13:39;102207.98;;;-1.18;100.00
68077;BME280;54866;53.458;14.540;2023-02-15T04:16:09;102210.59;;;-1.18;100.00
68077;BME280;54866;53.458;14.540;2023-02-15T04:18:40;102211.28;;;-1.19;100.00
68077;BME280;54866;53.458;14.540;2023-02-15T04:21:29;102212.14;;;-1.21;100.00
68077;BME280;54866;53.458;14.540;2023-02-15T04:24:16;102203.16;;;-1.25;100.00
68077;BME280;54866;53.458;14.540;2023-02-15T04:27:04;102202.33;;;-1.28;100.00
68077;BME280;54866;53.458;14.540;2023-02-15T04:29:34;102201.83;;;-1.31;100.00
68077;BME280;54866;53.458;14.540;2023-02-15T04:32:04;102200.80;;;-1.33;100.00
68077;BME280;54866;53.458;14.540;2023-02-15T04:34:34;102197.52;;;-1.34;100.00
68077;BME280;54866;53.458;14.540;2023-02-15T04:37:03;102190.29;;;-1.37;100.00
68077;BME280;54866;53.458;14.540;2023-02-15T04:39:33;102190.27;;;-1.38;100.00
68077;BME280;54866;53.458;14.540;2023-02-15T04:42:02;102182.51;;;-1.38;100.00
68077;BME280;54866;53.458;14.540;2023-02-15T04:44:31;102180.42;;;-1.39;100.00
68077;BME280;54866;53.458;14.540;2023-02-15T04:47:01;102175.75;;;-1.40;100.00
68077;BME280;54866;53.458;14.540;2023-02-15T04:49:30;102171.63;;;-1.44;100.00
68077;BME280;54866;53.458;14.540;2023-02-15T04:52:00;102174.91;;;-1.44;100.00
68077;BME280;54866;53.458;14.540;2023-02-15T04:54:29;102169.39;;;-1.45;100.00
68077;BME280;54866;53.458;14.540;2023-02-15T04:56:58;102165.94;;;-1.46;100.00
68077;BME280;54866;53.458;14.540;2023-02-15T04:59:28;102161.98;;;-1.48;100.00
68077;BME280;54866;53.458;14.540;2023-02-15T05:01:57;102158.88;;;-1.50;100.00
68077;BME280;54866;53.458;14.540;2023-02-15T05:04:26;102154.39;;;-1.52;100.00
68077;BME280;54866;53.458;14.540;2023-02-15T05:06:56;102156.98;;;-1.53;100.00
68077;BME280;54866;53.458;14.540;2023-02-15T05:09:25;102153.20;;;-1.54;100.00
68077;BME280;54866;53.458;14.540;2023-02-15T05:11:54;102146.64;;;-1.56;100.00
68077;BME280;54866;53.458;14.540;2023-02-15T05:14:24;102149.41;;;-1.59;100.00
68077;BME280;54866;53.458;14.540;2023-02-15T05:16:53;102149.40;;;-1.61;100.00
68077;BME280;54866;53.458;14.540;2023-02-15T05:19:22;102148.36;;;-1.60;100.00
68077;BME280;54866;53.458;14.540;2023-02-15T05:21:52;102142.48;;;-1.59;100.00
68077;BME280;54866;53.458;14.540;2023-02-15T05:24:21;102139.91;;;-1.57;100.00
68077;BME280;54866;53.458;14.540;2023-02-15T05:27:10;102141.80;;;-1.54;100.00
68077;BME280;54866;53.458;14.540;2023-02-15T05:29:57;102136.24;;;-1.51;100.00
68077;BME280;54866;53.458;14.540;2023-02-15T05:32:26;102135.05;;;-1.52;100.00
68077;BME280;54866;53.458;14.540;2023-02-15T05:34:56;102134.69;;;-1.52;100.00
68077;BME280;54866;53.458;14.540;2023-02-15T05:37:25;102131.94;;;-1.54;100.00
68077;BME280;54866;53.458;14.540;2023-02-15T05:39:54;102132.13;;;-1.56;100.00
68077;BME280;54866;53.458;14.540;2023-02-15T05:42:24;102135.05;;;-1.54;100.00
68077;BME280;54866;53.458;14.540;2023-02-15T05:44:53;102136.77;;;-1.54;100.00
68077;BME280;54866;53.458;14.540;2023-02-15T05:47:22;102137.11;;;-1.52;100.00
68077;BME280;54866;53.458;14.540;2023-02-15T05:49:52;102136.08;;;-1.53;100.00
68077;BME280;54866;53.458;14.540;2023-02-15T05:52:21;102127.44;;;-1.54;100.00
68077;BME280;54866;53.458;14.540;2023-02-15T05:54:50;102128.30;;;-1.53;100.00
68077;BME280;54866;53.458;14.540;2023-02-15T05:57:20;102132.64;;;-1.55;100.00
68077;BME280;54866;53.458;14.540;2023-02-15T05:59:49;102129.17;;;-1.56;100.00
68077;BME280;54866;53.458;14.540;2023-02-15T06:02:18;102128.66;;;-1.58;100.00
68077;BME280;54866;53.458;14.540;2023-02-15T06:04:48;102125.89;;;-1.58;100.00
68077;BME280;54866;53.458;14.540;2023-02-15T06:07:17;102120.02;;;-1.59;100.00
68077;BME280;54866;53.458;14.540;2023-02-15T06:09:46;102119.85;;;-1.56;100.00
68077;BME280;54866;53.458;14.540;2023-02-15T06:12:15;102120.01;;;-1.53;100.00
68077;BME280;54866;53.458;14.540;2023-02-15T06:14:45;102120.85;;;-1.50;100.00
68077;BME280;54866;53.458;14.540;2023-02-15T06:17:14;102115.29;;;-1.46;100.00
68077;BME280;54866;53.458;14.540;2023-02-15T06:19:44;102113.37;;;-1.42;100.00
68077;BME280;54866;53.458;14.540;2023-02-15T06:22:14;102118.54;;;-1.37;100.00
68077;BME280;54866;53.458;14.540;2023-02-15T06:24:43;102113.35;;;-1.37;100.00
68077;BME280;54866;53.458;14.540;2023-02-15T06:27:12;102116.09;;;-1.33;100.00
68077;BME280;54866;53.458;14.540;2023-02-15T06:29:42;102110.70;;;-1.29;100.00
68077;BME280;54866;53.458;14.540;2023-02-15T06:32:11;102107.88;;;-1.23;100.00
68077;BME280;54866;53.458;14.540;2023-02-15T06:34:40;102108.56;;;-1.20;100.00
68077;BME280;54866;53.458;14.540;2023-02-15T06:37:10;102102.81;;;-1.14;100.00
68077;BME280;54866;53.458;14.540;2023-02-15T06:39:39;102108.57;;;-0.97;100.00
68077;BME280;54866;53.458;14.540;2023-02-15T06:42:08;102102.83;;;-0.73;100.00
68077;BME280;54866;53.458;14.540;2023-02-15T06:44:37;102099.79;;;-0.44;100.00
68077;BME280;54866;53.458;14.540;2023-02-15T06:47:07;102099.09;;;-0.12;100.00
68077;BME280;54866;53.458;14.540;2023-02-15T06:49:36;102093.31;;;0.21;100.00
68077;BME280;54866;53.458;14.540;2023-02-15T06:52:06;102091.11;;;0.56;99.83
68077;BME280;54866;53.458;14.540;2023-02-15T06:54:35;102088.64;;;0.93;97.04
68077;BME280;54866;53.458;14.540;2023-02-15T06:57:05;102081.80;;;1.29;94.19
68077;BME280;54866;53.458;14.540;2023-02-15T06:59:34;102084.99;;;1.63;91.85
68077;BME280;54866;53.458;14.540;2023-02-15T07:02:03;102082.54;;;2.08;90.36
68077;BME280;54866;53.458;14.540;2023-02-15T07:04:33;102085.36;;;2.54;88.41
68077;BME280;54866;53.458;14.540;2023-02-15T07:07:02;102081.81;;;3.01;86.78
68077;BME280;54866;53.458;14.540;2023-02-15T07:09:32;102085.98;;;3.49;85.99
68077;BME280;54866;53.458;14.540;2023-02-15T07:12:01;102086.51;;;4.00;83.44
68077;BME280;54866;53.458;14.540;2023-02-15T07:14:48;102090.70;;;4.58;81.23
68077;BME280;54866;53.458;14.540;2023-02-15T07:17:17;102082.98;;;5.09;78.76
68077;BME280;54866;53.458;14.540;2023-02-15T07:19:46;102081.87;;;5.57;74.12
68077;BME280;54866;53.458;14.540;2023-02-15T07:22:16;102072.48;;;5.94;71.66
68077;BME280;54866;53.458;14.540;2023-02-15T07:24:45;102072.02;;;6.21;70.69
68077;BME280;54866;53.458;14.540;2023-02-15T07:27:15;102062.98;;;6.47;67.28
68077;BME280;54866;53.458;14.540;2023-02-15T07:29:44;102058.11;;;6.89;65.85
68077;BME280;54866;53.458;14.540;2023-02-15T07:32:14;102053.92;;;7.18;63.97
68077;BME280;54866;53.458;14.540;2023-02-15T07:34:43;102053.71;;;7.48;63.30
68077;BME280;54866;53.458;14.540;2023-02-15T07:37:12;102054.73;;;7.64;62.39
68077;BME280;54866;53.458;14.540;2023-02-15T07:39:42;102051.36;;;7.57;63.23
68077;BME280;54866;53.458;14.540;2023-02-15T07:42:11;102046.98;;;8.19;60.88
68077;BME280;54866;53.458;14.540;2023-02-15T07:44:40;102040.20;;;8.70;59.46
68077;BME280;54866;53.458;14.540;2023-02-15T07:47:09;102034.23;;;9.29;58.05
68077;BME280;54866;53.458;14.540;2023-02-15T07:49:40;102025.21;;;9.77;56.30
68077;BME280;54866;53.458;14.540;2023-02-15T07:52:09;102023.86;;;10.08;54.94
68077;BME280;54866;53.458;14.540;2023-02-15T07:54:38;102015.71;;;10.25;53.84
68077;BME280;54866;53.458;14.540;2023-02-15T07:57:07;102010.23;;;10.81;53.40
68077;BME280;54866;53.458;14.540;2023-02-15T07:59:37;102003.94;;;11.28;51.72
68077;BME280;54866;53.458;14.540;2023-02-15T08:02:09;102004.48;;;11.94;51.59
68077;BME280;54866;53.458;14.540;2023-02-15T08:04:39;101997.55;;;12.36;49.02
68077;BME280;54866;53.458;14.540;2023-02-15T08:07:08;101999.31;;;12.68;47.61
68077;BME280;54866;53.458;14.540;2023-02-15T08:09:38;101992.79;;;13.00;46.83
68077;BME280;54866;53.458;14.540;2023-02-15T08:12:07;101988.70;;;13.29;45.09
68077;BME280;54866;53.458;14.540;2023-02-15T08:14:36;101985.40;;;13.66;45.09
68077;BME280;54866;53.458;14.540;2023-02-15T08:17:06;101982.89;;;13.96;44.09
68077;BME280;54866;53.458;14.540;2023-02-15T08:19:35;101978.75;;;14.26;43.46
68077;BME280;54866;53.458;14.540;2023-02-15T08:22:06;101978.23;;;14.60;43.13
68077;BME280;54866;53.458;14.540;2023-02-15T08:24:38;101974.83;;;15.05;42.40
68077;BME280;54866;53.458;14.540;2023-02-15T08:27:09;101971.95;;;15.33;41.27
68077;BME280;54866;53.458;14.540;2023-02-15T08:29:39;101975.13;;;15.74;40.63
68077;BME280;54866;53.458;14.540;2023-02-15T08:32:11;101968.30;;;15.81;38.04
68077;BME280;54866;53.458;14.540;2023-02-15T08:34:42;101965.83;;;15.56;38.00
68077;BME280;54866;53.458;14.540;2023-02-15T08:37:11;101964.46;;;15.60;39.65
68077;BME280;54866;53.458;14.540;2023-02-15T08:39:41;101961.10;;;16.11;39.08
68077;BME280;54866;53.458;14.540;2023-02-15T08:42:11;101961.02;;;15.96;37.16
68077;BME280;54866;53.458;14.540;2023-02-15T08:44:41;101956.02;;;14.77;39.65
68077;BME280;54866;53.458;14.540;2023-02-15T08:47:11;101953.96;;;14.69;39.82
68077;BME280;54866;53.458;14.540;2023-02-15T08:49:40;101954.81;;;15.45;39.59
68077;BME280;54866;53.458;14.540;2023-02-15T08:52:09;101947.08;;;16.15;38.47
68077;BME280;54866;53.458;14.540;2023-02-15T08:54:38;101946.24;;;16.38;36.75
68077;BME280;54866;53.458;14.540;2023-02-15T08:57:08;101941.85;;;16.22;36.14
68077;BME280;54866;53.458;14.540;2023-02-15T08:59:38;101940.69;;;16.15;37.26
68077;BME280;54866;53.458;14.540;2023-02-15T09:02:09;101932.90;;;16.59;37.35
68077;BME280;54866;53.458;14.540;2023-02-15T09:04:38;101934.52;;;16.74;36.08
68077;BME280;54866;53.458;14.540;2023-02-15T09:07:08;101930.23;;;17.18;36.07
68077;BME280;54866;53.458;14.540;2023-02-15T09:09:37;101933.11;;;17.28;35.34
68077;BME280;54866;53.458;14.540;2023-02-15T09:12:06;101932.47;;;17.56;35.85
68077;BME280;54866;53.458;14.540;2023-02-15T09:14:36;101930.33;;;17.72;34.66
68077;BME280;54866;53.458;14.540;2023-02-15T09:17:05;101932.89;;;17.91;34.35
68077;BME280;54866;53.458;14.540;2023-02-15T09:19:35;101931.44;;;17.77;33.98
68077;BME280;54866;53.458;14.540;2023-02-15T09:22:04;101943.74;;;17.31;34.13
68077;BME280;54866;53.458;14.540;2023-02-15T09:24:34;101936.48;;;17.50;35.01
68077;BME280;54866;53.458;14.540;2023-02-15T09:27:03;101939.75;;;17.78;34.12
68077;BME280;54866;53.458;14.540;2023-02-15T09:29:33;101938.42;;;17.67;34.26
68077;BME280;54866;53.458;14.540;2023-02-15T09:32:02;101935.83;;;18.06;34.58
68077;BME280;54866;53.458;14.540;2023-02-15T09:34:32;101935.47;;;18.41;33.58
68077;BME280;54866;53.458;14.540;2023-02-15T09:37:01;101930.10;;;18.63;33.90
68077;BME280;54866;53.458;14.540;2023-02-15T09:39:31;101920.10;;;19.03;33.45
68077;BME280;54866;53.458;14.540;2023-02-15T09:45:26;101921.92;;;19.91;32.62
68077;BME280;54866;53.458;14.540;2023-02-15T09:48:17;101921.77;;;19.71;31.36
68077;BME280;54866;53.458;14.540;2023-02-15T09:51:05;101916.77;;;19.08;30.43
68077;BME280;54866;53.458;14.540;2023-02-15T09:53:56;101917.67;;;18.62;32.41
68077;BME280;54866;53.458;14.540;2023-02-15T09:56:32;101915.48;;;18.57;32.10
68077;BME280;54866;53.458;14.540;2023-02-15T09:59:14;101913.05;;;18.64;32.55
68077;BME280;54866;53.458;14.540;2023-02-15T10:01:56;101907.09;;;18.80;32.46
68077;BME280;54866;53.458;14.540;2023-02-15T10:04:45;101902.53;;;18.90;32.51
68077;BME280;54866;53.458;14.540;2023-02-15T10:07:35;101896.70;;;18.67;32.03
68077;BME280;54866;53.458;14.540;2023-02-15T10:10:21;101899.40;;;18.47;32.76
68077;BME280;54866;53.458;14.540;2023-02-15T10:13:07;101899.59;;;18.58;32.34
68077;BME280;54866;53.458;14.540;2023-02-15T10:15:52;101897.83;;;18.70;32.71
68077;BME280;54866;53.458;14.540;2023-02-15T10:18:36;101895.04;;;18.92;31.86
68077;BME280;54866;53.458;14.540;2023-02-15T10:21:16;101888.71;;;19.25;31.94
68077;BME280;54866;53.458;14.540;2023-02-15T10:24:05;101890.80;;;19.38;32.24
68077;BME280;54866;53.458;14.540;2023-02-15T10:26:44;101885.92;;;19.07;31.45
68077;BME280;54866;53.458;14.540;2023-02-15T10:29:23;101884.52;;;18.42;32.43
68077;BME280;54866;53.458;14.540;2023-02-15T10:32:00;101874.79;;;17.59;33.04
68077;BME280;54866;53.458;14.540;2023-02-15T10:34:37;101873.67;;;16.29;34.71
68077;BME280;54866;53.458;14.540;2023-02-15T10:37:21;101879.05;;;15.49;36.40
68077;BME280;54866;53.458;14.540;2023-02-15T10:40:03;101877.48;;;14.88;37.36
68077;BME280;54866;53.458;14.540;2023-02-15T10:42:47;101879.39;;;15.06;37.80
68077;BME280;54866;53.458;14.540;2023-02-15T10:45:26;101871.02;;;15.49;37.89
68077;BME280;54866;53.458;14.540;2023-02-15T10:48:12;101876.93;;;15.75;37.13
68077;BME280;54866;53.458;14.540;2023-02-15T10:50:50;101873.16;;;16.12;37.09
68077;BME280;54866;53.458;14.540;2023-02-15T10:56:19;101864.16;;;16.47;36.56
68077;BME280;54866;53.458;14.540;2023-02-15T10:59:10;101861.85;;;16.64;37.01
68077;BME280;54866;53.458;14.540;2023-02-15T11:01:49;101856.35;;;16.83;36.24
68077;BME280;54866;53.458;14.540;2023-02-15T11:04:38;101862.58;;;16.87;35.93
68077;BME280;54866;53.458;14.540;2023-02-15T11:07:14;101860.15;;;17.09;35.67
68077;BME280;54866;53.458;14.540;2023-02-15T11:09:48;101851.81;;;16.73;35.16
68077;BME280;54866;53.458;14.540;2023-02-15T11:12:22;101848.02;;;16.34;36.05
68077;BME280;54866;53.458;14.540;2023-02-15T11:14:55;101853.80;;;16.18;36.77
68077;BME280;54866;53.458;14.540;2023-02-15T11:17:30;101849.48;;;16.06;36.71
68077;BME280;54866;53.458;14.540;2023-02-15T11:20:08;101843.57;;;16.34;37.29
68077;BME280;54866;53.458;14.540;2023-02-15T11:22:41;101838.67;;;16.65;37.31
68077;BME280;54866;53.458;14.540;2023-02-15T11:25:18;101832.80;;;16.94;36.13
68077;BME280;54866;53.458;14.540;2023-02-15T11:27:49;101835.83;;;16.61;36.46
68077;BME280;54866;53.458;14.540;2023-02-15T11:30:23;101835.89;;;16.30;37.21
68077;BME280;54866;53.458;14.540;2023-02-15T11:32:56;101838.34;;;16.54;37.72
68077;BME280;54866;53.458;14.540;2023-02-15T11:35:33;101832.98;;;16.88;36.82
68077;BME280;54866;53.458;14.540;2023-02-15T11:38:10;101836.21;;;16.75;36.48
68077;BME280;54866;53.458;14.540;2023-02-15T11:40:45;101828.30;;;16.76;36.81
68077;BME280;54866;53.458;14.540;2023-02-15T11:43:20;101824.72;;;16.30;36.83
68077;BME280;54866;53.458;14.540;2023-02-15T11:45:52;101825.63;;;15.19;38.77
68077;BME280;54866;53.458;14.540;2023-02-15T11:48:22;101820.70;;;14.69;39.71
68077;BME280;54866;53.458;14.540;2023-02-15T11:50:52;101818.30;;;14.47;40.02
68077;BME280;54866;53.458;14.540;2023-02-15T11:53:23;101815.18;;;14.23;40.83
68077;BME280;54866;53.458;14.540;2023-02-15T11:55:55;101815.69;;;14.38;41.60
68077;BME280;54866;53.458;14.540;2023-02-15T11:58:29;101815.09;;;14.89;40.90
68077;BME280;54866;53.458;14.540;2023-02-15T12:01:09;101823.14;;;14.76;40.51
68077;BME280;54866;53.458;14.540;2023-02-15T12:03:46;101810.65;;;14.66;40.90
68077;BME280;54866;53.458;14.540;2023-02-15T12:06:22;101812.69;;;14.72;41.19
68077;BME280;54866;53.458;14.540;2023-02-15T12:08:57;101812.11;;;14.77;41.03
68077;BME280;54866;53.458;14.540;2023-02-15T12:11:34;101810.17;;;14.79;41.20
68077;BME280;54866;53.458;14.540;2023-02-15T12:14:06;101809.30;;;14.63;41.24
68077;BME280;54866;53.458;14.540;2023-02-15T12:16:43;101806.29;;;14.35;41.73
68077;BME280;54866;53.458;14.540;2023-02-15T12:19:29;101809.64;;;14.02;42.52
68077;BME280;54866;53.458;14.540;2023-02-15T12:22:00;101804.41;;;13.92;42.49
68077;BME280;54866;53.458;14.540;2023-02-15T12:24:34;101797.58;;;13.81;43.02
68077;BME280;54866;53.458;14.540;2023-02-15T12:27:13;101791.46;;;13.73;43.35
68077;BME280;54866;53.458;14.540;2023-02-15T12:29:45;101793.05;;;13.71;43.51
68077;BME280;54866;53.458;14.540;2023-02-15T12:32:22;101796.90;;;13.72;43.71
68077;BME280;54866;53.458;14.540;2023-02-15T12:34:55;101793.08;;;13.75;43.61
68077;BME280;54866;53.458;14.540;2023-02-15T12:37:31;101789.16;;;13.42;43.97
68077;BME280;54866;53.458;14.540;2023-02-15T12:40:18;101786.14;;;13.02;45.01
68077;BME280;54866;53.458;14.540;2023-02-15T12:42:47;101786.55;;;12.84;45.69
68077;BME280;54866;53.458;14.540;2023-02-15T12:45:26;101777.38;;;12.96;45.62
68077;BME280;54866;53.458;14.540;2023-02-15T12:48:16;101772.58;;;13.19;45.71
68077;BME280;54866;53.458;14.540;2023-02-15T12:50:46;101771.63;;;13.25;45.22
68077;BME280;54866;53.458;14.540;2023-02-15T12:53:18;101773.41;;;13.02;45.36
68077;BME280;54866;53.458;14.540;2023-02-15T12:55:53;101769.16;;;12.85;45.79
68077;BME280;54866;53.458;14.540;2023-02-15T12:58:25;101770.15;;;12.68;46.12
68077;BME280;54866;53.458;14.540;2023-02-15T13:01:12;101767.31;;;12.48;46.64
68077;BME280;54866;53.458;14.540;2023-02-15T13:03:56;101761.61;;;12.28;47.23
68077;BME280;54866;53.458;14.540;2023-02-15T13:06:27;101757.45;;;12.04;47.82
68077;BME280;54866;53.458;14.540;2023-02-15T13:09:05;101762.30;;;11.97;48.36
68077;BME280;54866;53.458;14.540;2023-02-15T13:11:35;101760.19;;;11.87;48.83
68077;BME280;54866;53.458;14.540;2023-02-15T13:14:18;101763.14;;;12.16;48.82
68077;BME280;54866;53.458;14.540;2023-02-15T13:16:50;101755.96;;;12.21;48.36
68077;BME280;54866;53.458;14.540;2023-02-15T13:19:26;101752.14;;;12.20;48.72